sensor_id;sensor_type;location;lat;lon;timestamp;P1;durP1;ratioP1;P2;durP2;ratioP2
34535;SDS011;20779;55.596;37.538;2022-08-01T00:01:15;8.77;;;3.47;;
34535;SDS011;20779;55.596;37.538;2022-08-01T00:03:41;6.13;;;3.33;;
34535;SDS011;20779;55.596;37.538;2022-08-01T00:06:08;6.00;;;3.05;;
34535;SDS011;20779;55.596;37.538;2022-08-01T00:08:34;11.20;;;4.50;;
34535;SDS011;20779;55.596;37.538;2022-08-01T00:11:00;11.77;;;4.15;;
34535;SDS011;20779;55.596;37.538;2022-08-01T00:13:27;7.40;;;3.60;;
34535;SDS011;20779;55.596;37.538;2022-08-01T00:15:53;9.73;;;3.70;;
34535;SDS011;20779;55.596;37.538;2022-08-01T00:18:20;6.80;;;3.60;;
34535;SDS011;20779;55.596;37.538;2022-08-01T00:20:50;6.25;;;3.60;;
34535;SDS011;20779;55.596;37.538;2022-08-01T00:23:16;12.73;;;3.45;;
34535;SDS011;20779;55.596;37.538;2022-08-01T00:25:45;6.25;;;3.50;;
34535;SDS011;20779;55.596;37.538;2022-08-01T00:28:12;8.30;;;3.50;;
34535;SDS011;20779;55.596;37.538;2022-08-01T00:30:38;8.77;;;2.97;;
34535;SDS011;20779;55.596;37.538;2022-08-01T00:33:05;6.53;;;3.47;;
34535;SDS011;20779;55.596;37.538;2022-08-01T00:35:32;8.30;;;3.67;;
34535;SDS011;20779;55.596;37.538;2022-08-01T00:37:59;9.50;;;3.33;;
34535;SDS011;20779;55.596;37.538;2022-08-01T00:40:26;7.03;;;3.60;;
34535;SDS011;20779;55.596;37.538;2022-08-01T00:42:54;10.35;;;3.67;;
34535;SDS011;20779;55.596;37.538;2022-08-01T00:45:21;7.38;;;3.53;;
34535;SDS011;20779;55.596;37.538;2022-08-01T00:47:47;8.18;;;3.83;;
34535;SDS011;20779;55.596;37.538;2022-08-01T00:50:14;6.13;;;3.15;;
34535;SDS011;20779;55.596;37.538;2022-08-01T00:52:41;7.18;;;3.42;;
34535;SDS011;20779;55.596;37.538;2022-08-01T00:55:08;9.27;;;3.50;;
34535;SDS011;20779;55.596;37.538;2022-08-01T00:57:37;6.93;;;3.83;;
34535;SDS011;20779;55.596;37.538;2022-08-01T01:00:05;9.18;;;4.05;;
34535;SDS011;20779;55.596;37.538;2022-08-01T01:02:33;7.65;;;3.55;;
34535;SDS011;20779;55.596;37.538;2022-08-01T01:05:00;8.02;;;3.50;;
34535;SDS011;20779;55.596;37.538;2022-08-01T01:07:32;5.53;;;3.38;;
34535;SDS011;20779;55.596;37.538;2022-08-01T01:13:09;8.25;;;3.78;;
34535;SDS011;20779;55.596;37.538;2022-08-01T01:18:24;7.55;;;3.78;;
34535;SDS011;20779;55.596;37.538;2022-08-01T01:21:14;6.78;;;3.70;;
34535;SDS011;20779;55.596;37.538;2022-08-01T01:30:00;6.50;;;3.42;;
34535;SDS011;20779;55.596;37.538;2022-08-01T01:32:31;8.98;;;3.38;;
34535;SDS011;20779;55.596;37.538;2022-08-01T01:35:03;6.85;;;3.17;;
34535;SDS011;20779;55.596;37.538;2022-08-01T01:37:34;6.45;;;3.47;;
34535;SDS011;20779;55.596;37.538;2022-08-01T01:40:05;5.97;;;3.50;;
34535;SDS011;20779;55.596;37.538;2022-08-01T01:42:36;8.98;;;3.13;;
34535;SDS011;20779;55.596;37.538;2022-08-01T01:45:04;7.93;;;3.83;;
34535;SDS011;20779;55.596;37.538;2022-08-01T01:47:32;9.45;;;4.03;;
34535;SDS011;20779;55.596;37.538;2022-08-01T01:50:00;8.32;;;3.97;;
34535;SDS011;20779;55.596;37.538;2022-08-01T01:52:29;13.63;;;4.95;;
34535;SDS011;20779;55.596;37.538;2022-08-01T01:54:57;8.57;;;4.95;;
34535;SDS011;20779;55.596;37.538;2022-08-01T01:57:25;12.50;;;5.07;;
34535;SDS011;20779;55.596;37.538;2022-08-01T01:59:53;9.65;;;5.60;;
34535;SDS011;20779;55.596;37.538;2022-08-01T02:02:21;8.88;;;4.70;;
34535;SDS011;20779;55.596;37.538;2022-08-01T02:04:49;9.93;;;4.78;;
34535;SDS011;20779;55.596;37.538;2022-08-01T02:07:19;8.13;;;5.43;;
34535;SDS011;20779;55.596;37.538;2022-08-01T02:09:49;10.82;;;5.03;;
34535;SDS011;20779;55.596;37.538;2022-08-01T02:12:17;9.18;;;4.72;;
34535;SDS011;20779;55.596;37.538;2022-08-01T02:15:04;8.77;;;4.65;;
34535;SDS011;20779;55.596;37.538;2022-08-01T02:17:32;10.23;;;4.00;;
34535;SDS011;20779;55.596;37.538;2022-08-01T02:20:07;11.85;;;4.88;;
34535;SDS011;20779;55.596;37.538;2022-08-01T02:22:42;8.48;;;4.63;;
34535;SDS011;20779;55.596;37.538;2022-08-01T02:28:05;7.45;;;4.05;;
34535;SDS011;20779;55.596;37.538;2022-08-01T02:30:36;9.60;;;4.28;;
34535;SDS011;20779;55.596;37.538;2022-08-01T02:33:18;7.32;;;4.90;;
34535;SDS011;20779;55.596;37.538;2022-08-01T02:35:52;8.73;;;4.00;;
34535;SDS011;20779;55.596;37.538;2022-08-01T02:38:24;10.70;;;4.45;;
34535;SDS011;20779;55.596;37.538;2022-08-01T02:40:54;9.68;;;4.60;;
34535;SDS011;20779;55.596;37.538;2022-08-01T02:43:31;10.57;;;4.78;;
34535;SDS011;20779;55.596;37.538;2022-08-01T02:46:03;9.55;;;4.60;;
34535;SDS011;20779;55.596;37.538;2022-08-01T02:48:33;12.52;;;4.43;;
34535;SDS011;20779;55.596;37.538;2022-08-01T02:51:02;9.45;;;4.55;;
34535;SDS011;20779;55.596;37.538;2022-08-01T02:53:31;11.20;;;4.65;;
34535;SDS011;20779;55.596;37.538;2022-08-01T02:56:03;12.50;;;4.75;;
34535;SDS011;20779;55.596;37.538;2022-08-01T02:58:34;12.48;;;4.80;;
34535;SDS011;20779;55.596;37.538;2022-08-01T03:01:03;11.70;;;5.07;;
34535;SDS011;20779;55.596;37.538;2022-08-01T03:03:31;9.60;;;3.90;;
34535;SDS011;20779;55.596;37.538;2022-08-01T03:05:58;8.18;;;3.97;;
34535;SDS011;20779;55.596;37.538;2022-08-01T03:08:27;8.52;;;4.05;;
34535;SDS011;20779;55.596;37.538;2022-08-01T03:10:57;9.75;;;4.22;;
34535;SDS011;20779;55.596;37.538;2022-08-01T03:13:27;7.90;;;4.28;;
34535;SDS011;20779;55.596;37.538;2022-08-01T03:15:55;11.20;;;4.45;;
34535;SDS011;20779;55.596;37.538;2022-08-01T03:18:23;8.75;;;4.63;;
34535;SDS011;20779;55.596;37.538;2022-08-01T03:20:52;8.77;;;4.35;;
34535;SDS011;20779;55.596;37.538;2022-08-01T03:23:22;8.05;;;4.00;;
34535;SDS011;20779;55.596;37.538;2022-08-01T03:25:50;7.00;;;4.05;;
34535;SDS011;20779;55.596;37.538;2022-08-01T03:28:18;10.60;;;3.55;;
34535;SDS011;20779;55.596;37.538;2022-08-01T03:30:49;7.80;;;3.92;;
34535;SDS011;20779;55.596;37.538;2022-08-01T03:33:16;7.70;;;3.90;;
34535;SDS011;20779;55.596;37.538;2022-08-01T03:35:44;9.43;;;3.92;;
34535;SDS011;20779;55.596;37.538;2022-08-01T03:38:17;7.65;;;3.72;;
34535;SDS011;20779;55.596;37.538;2022-08-01T03:40:52;8.18;;;3.70;;
34535;SDS011;20779;55.596;37.538;2022-08-01T03:43:25;9.10;;;3.67;;
34535;SDS011;20779;55.596;37.538;2022-08-01T03:46:01;8.38;;;3.67;;
34535;SDS011;20779;55.596;37.538;2022-08-01T03:48:35;9.55;;;3.75;;
34535;SDS011;20779;55.596;37.538;2022-08-01T03:51:06;8.70;;;3.30;;
34535;SDS011;20779;55.596;37.538;2022-08-01T03:53:34;8.48;;;3.80;;
34535;SDS011;20779;55.596;37.538;2022-08-01T03:56:02;9.02;;;3.60;;
34535;SDS011;20779;55.596;37.538;2022-08-01T03:58:29;13.60;;;3.78;;
34535;SDS011;20779;55.596;37.538;2022-08-01T04:00:56;7.40;;;3.47;;
34535;SDS011;20779;55.596;37.538;2022-08-01T04:03:24;6.93;;;3.30;;
34535;SDS011;20779;55.596;37.538;2022-08-01T04:05:51;11.48;;;3.75;;
34535;SDS011;20779;55.596;37.538;2022-08-01T04:08:17;6.22;;;3.65;;
34535;SDS011;20779;55.596;37.538;2022-08-01T04:10:43;9.52;;;3.70;;
34535;SDS011;20779;55.596;37.538;2022-08-01T04:13:10;9.77;;;3.10;;
34535;SDS011;20779;55.596;37.538;2022-08-01T04:15:36;8.57;;;3.70;;
34535;SDS011;20779;55.596;37.538;2022-08-01T04:18:03;9.30;;;3.95;;
34535;SDS011;20779;55.596;37.538;2022-08-01T04:20:29;7.32;;;3.53;;
34535;SDS011;20779;55.596;37.538;2022-08-01T04:22:56;11.20;;;3.60;;
34535;SDS011;20779;55.596;37.538;2022-08-01T04:25:26;12.30;;;3.55;;
34535;SDS011;20779;55.596;37.538;2022-08-01T04:27:59;12.32;;;3.70;;
34535;SDS011;20779;55.596;37.538;2022-08-01T04:30:31;9.18;;;2.97;;
34535;SDS011;20779;55.596;37.538;2022-08-01T04:33:00;8.38;;;3.00;;
34535;SDS011;20779;55.596;37.538;2022-08-01T04:35:30;9.23;;;3.23;;
34535;SDS011;20779;55.596;37.538;2022-08-01T04:37:58;6.45;;;3.17;;
34535;SDS011;20779;55.596;37.538;2022-08-01T04:40:27;6.13;;;3.05;;
34535;SDS011;20779;55.596;37.538;2022-08-01T04:42:54;8.45;;;3.15;;
34535;SDS011;20779;55.596;37.538;2022-08-01T04:45:20;9.90;;;2.75;;
34535;SDS011;20779;55.596;37.538;2022-08-01T04:47:48;8.55;;;2.65;;
34535;SDS011;20779;55.596;37.538;2022-08-01T04:50:15;9.07;;;2.85;;
34535;SDS011;20779;55.596;37.538;2022-08-01T04:52:42;7.47;;;2.30;;
34535;SDS011;20779;55.596;37.538;2022-08-01T04:55:09;12.05;;;2.70;;
34535;SDS011;20779;55.596;37.538;2022-08-01T04:57:36;12.68;;;3.35;;
34535;SDS011;20779;55.596;37.538;2022-08-01T05:00:06;10.57;;;2.70;;
34535;SDS011;20779;55.596;37.538;2022-08-01T05:02:34;14.95;;;2.80;;
34535;SDS011;20779;55.596;37.538;2022-08-01T05:05:00;9.48;;;2.80;;
34535;SDS011;20779;55.596;37.538;2022-08-01T05:07:26;7.55;;;2.80;;
34535;SDS011;20779;55.596;37.538;2022-08-01T05:09:53;7.80;;;2.38;;
34535;SDS011;20779;55.596;37.538;2022-08-01T05:12:19;7.88;;;2.80;;
34535;SDS011;20779;55.596;37.538;2022-08-01T05:14:46;9.25;;;2.60;;
34535;SDS011;20779;55.596;37.538;2022-08-01T05:17:12;15.23;;;3.35;;
34535;SDS011;20779;55.596;37.538;2022-08-01T05:19:39;10.32;;;2.83;;
34535;SDS011;20779;55.596;37.538;2022-08-01T05:22:07;9.90;;;3.03;;
34535;SDS011;20779;55.596;37.538;2022-08-01T05:24:34;9.15;;;3.05;;
34535;SDS011;20779;55.596;37.538;2022-08-01T05:27:03;9.65;;;3.22;;
34535;SDS011;20779;55.596;37.538;2022-08-01T05:29:31;7.78;;;2.60;;
34535;SDS011;20779;55.596;37.538;2022-08-01T05:31:58;8.18;;;2.30;;
34535;SDS011;20779;55.596;37.538;2022-08-01T05:34:25;10.07;;;2.40;;
34535;SDS011;20779;55.596;37.538;2022-08-01T05:36:52;8.43;;;3.22;;
34535;SDS011;20779;55.596;37.538;2022-08-01T05:39:18;19.55;;;4.05;;
34535;SDS011;20779;55.596;37.538;2022-08-01T05:41:45;13.07;;;2.78;;
34535;SDS011;20779;55.596;37.538;2022-08-01T05:44:11;9.10;;;2.88;;
34535;SDS011;20779;55.596;37.538;2022-08-01T05:46:38;10.27;;;2.72;;
34535;SDS011;20779;55.596;37.538;2022-08-01T05:49:04;9.63;;;2.45;;
34535;SDS011;20779;55.596;37.538;2022-08-01T05:51:31;7.70;;;3.08;;
34535;SDS011;20779;55.596;37.538;2022-08-01T05:53:58;7.43;;;2.58;;
34535;SDS011;20779;55.596;37.538;2022-08-01T05:56:24;10.57;;;2.78;;
34535;SDS011;20779;55.596;37.538;2022-08-01T05:58:51;10.27;;;3.08;;
34535;SDS011;20779;55.596;37.538;2022-08-01T06:01:18;6.57;;;2.42;;
34535;SDS011;20779;55.596;37.538;2022-08-01T06:03:45;9.00;;;3.25;;
34535;SDS011;20779;55.596;37.538;2022-08-01T06:06:12;10.38;;;4.35;;
34535;SDS011;20779;55.596;37.538;2022-08-01T06:08:39;9.63;;;3.53;;
34535;SDS011;20779;55.596;37.538;2022-08-01T06:11:06;9.23;;;3.53;;
34535;SDS011;20779;55.596;37.538;2022-08-01T06:13:32;8.85;;;3.75;;
34535;SDS011;20779;55.596;37.538;2022-08-01T06:15:59;6.55;;;2.88;;
34535;SDS011;20779;55.596;37.538;2022-08-01T06:18:25;9.25;;;3.15;;
34535;SDS011;20779;55.596;37.538;2022-08-01T06:20:51;6.72;;;2.58;;
34535;SDS011;20779;55.596;37.538;2022-08-01T06:23:18;8.20;;;2.80;;
34535;SDS011;20779;55.596;37.538;2022-08-01T06:25:46;14.77;;;3.35;;
34535;SDS011;20779;55.596;37.538;2022-08-01T06:28:13;8.35;;;3.30;;
34535;SDS011;20779;55.596;37.538;2022-08-01T06:30:39;8.18;;;2.90;;
34535;SDS011;20779;55.596;37.538;2022-08-01T06:33:06;5.90;;;3.00;;
34535;SDS011;20779;55.596;37.538;2022-08-01T06:35:33;9.57;;;3.15;;
34535;SDS011;20779;55.596;37.538;2022-08-01T06:37:59;8.13;;;2.70;;
34535;SDS011;20779;55.596;37.538;2022-08-01T06:40:27;5.13;;;2.47;;
34535;SDS011;20779;55.596;37.538;2022-08-01T06:42:54;6.30;;;2.63;;
34535;SDS011;20779;55.596;37.538;2022-08-01T06:45:20;7.45;;;2.30;;
34535;SDS011;20779;55.596;37.538;2022-08-01T06:47:51;6.78;;;2.65;;
34535;SDS011;20779;55.596;37.538;2022-08-01T06:50:17;8.52;;;2.20;;
34535;SDS011;20779;55.596;37.538;2022-08-01T06:52:43;3.95;;;2.25;;
34535;SDS011;20779;55.596;37.538;2022-08-01T06:55:10;4.43;;;2.17;;
34535;SDS011;20779;55.596;37.538;2022-08-01T06:57:44;6.07;;;2.15;;
34535;SDS011;20779;55.596;37.538;2022-08-01T07:00:15;6.15;;;2.17;;
34535;SDS011;20779;55.596;37.538;2022-08-01T07:02:44;5.90;;;2.17;;
34535;SDS011;20779;55.596;37.538;2022-08-01T07:05:11;5.88;;;2.20;;
34535;SDS011;20779;55.596;37.538;2022-08-01T07:07:37;6.00;;;2.17;;
34535;SDS011;20779;55.596;37.538;2022-08-01T07:10:04;3.70;;;2.00;;
34535;SDS011;20779;55.596;37.538;2022-08-01T07:12:31;6.25;;;2.08;;
34535;SDS011;20779;55.596;37.538;2022-08-01T07:14:58;7.00;;;2.45;;
34535;SDS011;20779;55.596;37.538;2022-08-01T07:17:24;5.68;;;2.20;;
34535;SDS011;20779;55.596;37.538;2022-08-01T07:19:50;3.97;;;1.85;;
34535;SDS011;20779;55.596;37.538;2022-08-01T07:22:19;5.60;;;2.20;;
34535;SDS011;20779;55.596;37.538;2022-08-01T07:24:46;5.93;;;1.95;;
34535;SDS011;20779;55.596;37.538;2022-08-01T07:27:12;9.93;;;2.00;;
34535;SDS011;20779;55.596;37.538;2022-08-01T07:29:39;11.45;;;2.55;;
34535;SDS011;20779;55.596;37.538;2022-08-01T07:32:06;6.38;;;2.05;;
34535;SDS011;20779;55.596;37.538;2022-08-01T07:34:32;6.45;;;2.10;;
34535;SDS011;20779;55.596;37.538;2022-08-01T07:36:58;7.70;;;1.90;;
34535;SDS011;20779;55.596;37.538;2022-08-01T07:39:25;8.23;;;2.15;;
34535;SDS011;20779;55.596;37.538;2022-08-01T07:41:51;6.80;;;2.22;;
34535;SDS011;20779;55.596;37.538;2022-08-01T07:44:17;5.65;;;1.95;;
34535;SDS011;20779;55.596;37.538;2022-08-01T07:46:44;6.15;;;2.63;;
34535;SDS011;20779;55.596;37.538;2022-08-01T07:49:10;6.15;;;2.40;;
34535;SDS011;20779;55.596;37.538;2022-08-01T07:51:37;4.78;;;2.38;;
34535;SDS011;20779;55.596;37.538;2022-08-01T07:54:03;7.90;;;2.10;;
34535;SDS011;20779;55.596;37.538;2022-08-01T07:56:30;5.10;;;1.90;;
34535;SDS011;20779;55.596;37.538;2022-08-01T07:58:56;6.38;;;2.35;;
34535;SDS011;20779;55.596;37.538;2022-08-01T08:01:22;5.20;;;1.92;;
34535;SDS011;20779;55.596;37.538;2022-08-01T08:03:49;6.82;;;1.75;;
34535;SDS011;20779;55.596;37.538;2022-08-01T08:06:15;6.93;;;2.35;;
34535;SDS011;20779;55.596;37.538;2022-08-01T08:08:41;5.20;;;2.03;;
34535;SDS011;20779;55.596;37.538;2022-08-01T08:11:07;4.93;;;1.70;;
34535;SDS011;20779;55.596;37.538;2022-08-01T08:13:34;3.83;;;1.83;;
34535;SDS011;20779;55.596;37.538;2022-08-01T08:16:00;7.03;;;2.35;;
34535;SDS011;20779;55.596;37.538;2022-08-01T08:18:26;6.95;;;1.88;;
34535;SDS011;20779;55.596;37.538;2022-08-01T08:20:53;10.80;;;2.83;;
34535;SDS011;20779;55.596;37.538;2022-08-01T08:23:19;4.47;;;2.00;;
34535;SDS011;20779;55.596;37.538;2022-08-01T08:26:04;5.88;;;1.80;;
34535;SDS011;20779;55.596;37.538;2022-08-01T08:28:31;11.68;;;2.10;;
34535;SDS011;20779;55.596;37.538;2022-08-01T08:30:57;3.53;;;1.98;;
34535;SDS011;20779;55.596;37.538;2022-08-01T08:33:24;3.83;;;1.95;;
34535;SDS011;20779;55.596;37.538;2022-08-01T08:35:50;8.27;;;2.60;;
34535;SDS011;20779;55.596;37.538;2022-08-01T08:38:19;6.55;;;2.60;;
34535;SDS011;20779;55.596;37.538;2022-08-01T08:40:45;6.75;;;2.45;;
34535;SDS011;20779;55.596;37.538;2022-08-01T08:43:12;6.10;;;2.25;;
34535;SDS011;20779;55.596;37.538;2022-08-01T08:45:40;5.22;;;2.22;;
34535;SDS011;20779;55.596;37.538;2022-08-01T08:48:07;10.20;;;2.25;;
34535;SDS011;20779;55.596;37.538;2022-08-01T08:50:34;6.80;;;2.25;;
34535;SDS011;20779;55.596;37.538;2022-08-01T08:53:02;6.90;;;2.00;;
34535;SDS011;20779;55.596;37.538;2022-08-01T08:55:29;6.38;;;2.30;;
34535;SDS011;20779;55.596;37.538;2022-08-01T08:57:56;4.30;;;1.95;;
34535;SDS011;20779;55.596;37.538;2022-08-01T09:00:24;6.95;;;1.85;;
34535;SDS011;20779;55.596;37.538;2022-08-01T09:02:51;6.55;;;1.80;;
34535;SDS011;20779;55.596;37.538;2022-08-01T09:05:22;4.93;;;2.00;;
34535;SDS011;20779;55.596;37.538;2022-08-01T09:07:52;4.20;;;1.95;;
34535;SDS011;20779;55.596;37.538;2022-08-01T09:10:19;3.83;;;2.08;;
34535;SDS011;20779;55.596;37.538;2022-08-01T09:13:01;9.10;;;1.95;;
34535;SDS011;20779;55.596;37.538;2022-08-01T09:15:43;4.30;;;1.40;;
34535;SDS011;20779;55.596;37.538;2022-08-01T09:23:36;4.60;;;1.90;;
34535;SDS011;20779;55.596;37.538;2022-08-01T09:26:11;6.18;;;1.65;;
34535;SDS011;20779;55.596;37.538;2022-08-01T09:28:41;7.85;;;1.88;;
34535;SDS011;20779;55.596;37.538;2022-08-01T09:31:12;10.50;;;2.03;;
34535;SDS011;20779;55.596;37.538;2022-08-01T09:33:54;3.33;;;1.58;;
34535;SDS011;20779;55.596;37.538;2022-08-01T09:39:32;5.68;;;1.80;;
34535;SDS011;20779;55.596;37.538;2022-08-01T09:42:21;2.22;;;1.15;;
34535;SDS011;20779;55.596;37.538;2022-08-01T09:44:50;6.18;;;1.55;;
34535;SDS011;20779;55.596;37.538;2022-08-01T09:47:18;2.80;;;1.65;;
34535;SDS011;20779;55.596;37.538;2022-08-01T09:49:52;6.00;;;1.30;;
34535;SDS011;20779;55.596;37.538;2022-08-01T09:52:22;3.53;;;1.30;;
34535;SDS011;20779;55.596;37.538;2022-08-01T09:54:55;4.28;;;1.42;;
34535;SDS011;20779;55.596;37.538;2022-08-01T09:57:30;4.50;;;1.33;;
34535;SDS011;20779;55.596;37.538;2022-08-01T09:59:57;3.50;;;1.35;;
34535;SDS011;20779;55.596;37.538;2022-08-01T10:02:32;7.28;;;2.75;;
34535;SDS011;20779;55.596;37.538;2022-08-01T10:05:06;4.72;;;1.50;;
34535;SDS011;20779;55.596;37.538;2022-08-01T10:07:35;3.30;;;1.98;;
34535;SDS011;20779;55.596;37.538;2022-08-01T10:10:22;4.25;;;1.52;;
34535;SDS011;20779;55.596;37.538;2022-08-01T10:12:49;2.58;;;1.33;;
34535;SDS011;20779;55.596;37.538;2022-08-01T10:15:18;2.25;;;1.25;;
34535;SDS011;20779;55.596;37.538;2022-08-01T10:17:55;5.40;;;1.67;;
34535;SDS011;20779;55.596;37.538;2022-08-01T10:20:28;5.18;;;1.15;;
34535;SDS011;20779;55.596;37.538;2022-08-01T10:22:58;2.20;;;1.20;;
34535;SDS011;20779;55.596;37.538;2022-08-01T10:25:33;4.90;;;1.98;;
34535;SDS011;20779;55.596;37.538;2022-08-01T10:28:06;8.05;;;1.95;;
34535;SDS011;20779;55.596;37.538;2022-08-01T10:30:43;2.78;;;1.42;;
34535;SDS011;20779;55.596;37.538;2022-08-01T10:33:10;5.38;;;1.50;;
34535;SDS011;20779;55.596;37.538;2022-08-01T10:35:38;2.78;;;1.38;;
34535;SDS011;20779;55.596;37.538;2022-08-01T10:38:04;6.15;;;1.77;;
34535;SDS011;20779;55.596;37.538;2022-08-01T10:40:31;5.32;;;1.83;;
34535;SDS011;20779;55.596;37.538;2022-08-01T10:42:58;3.83;;;1.63;;
34535;SDS011;20779;55.596;37.538;2022-08-01T10:45:25;4.10;;;1.55;;
34535;SDS011;20779;55.596;37.538;2022-08-01T10:51:01;4.32;;;1.60;;
34535;SDS011;20779;55.596;37.538;2022-08-01T10:53:30;2.20;;;1.50;;
34535;SDS011;20779;55.596;37.538;2022-08-01T10:55:59;2.72;;;1.70;;
34535;SDS011;20779;55.596;37.538;2022-08-01T10:58:34;7.47;;;1.60;;
34535;SDS011;20779;55.596;37.538;2022-08-01T11:01:16;3.03;;;1.87;;
34535;SDS011;20779;55.596;37.538;2022-08-01T11:04:06;5.13;;;2.00;;
34535;SDS011;20779;55.596;37.538;2022-08-01T11:09:30;4.35;;;1.95;;
34535;SDS011;20779;55.596;37.538;2022-08-01T11:12:07;3.33;;;1.60;;
34535;SDS011;20779;55.596;37.538;2022-08-01T11:17:31;5.10;;;1.70;;
34535;SDS011;20779;55.596;37.538;2022-08-01T11:20:09;2.88;;;1.45;;
34535;SDS011;20779;55.596;37.538;2022-08-01T11:25:26;3.17;;;1.38;;
34535;SDS011;20779;55.596;37.538;2022-08-01T11:31:41;2.50;;;1.55;;
34535;SDS011;20779;55.596;37.538;2022-08-01T11:39:10;4.15;;;1.77;;
34535;SDS011;20779;55.596;37.538;2022-08-01T11:41:37;5.10;;;1.60;;
34535;SDS011;20779;55.596;37.538;2022-08-01T11:44:09;3.28;;;1.35;;
34535;SDS011;20779;55.596;37.538;2022-08-01T11:46:45;3.33;;;1.63;;
34535;SDS011;20779;55.596;37.538;2022-08-01T11:49:33;3.30;;;1.38;;
34535;SDS011;20779;55.596;37.538;2022-08-01T11:52:09;3.47;;;1.42;;
34535;SDS011;20779;55.596;37.538;2022-08-01T11:54:48;4.68;;;1.92;;
34535;SDS011;20779;55.596;37.538;2022-08-01T11:57:23;3.65;;;1.70;;
34535;SDS011;20779;55.596;37.538;2022-08-01T11:59:56;5.05;;;1.77;;
34535;SDS011;20779;55.596;37.538;2022-08-01T12:02:31;7.75;;;1.77;;
34535;SDS011;20779;55.596;37.538;2022-08-01T12:05:06;9.07;;;1.90;;
34535;SDS011;20779;55.596;37.538;2022-08-01T12:07:42;7.65;;;1.70;;
34535;SDS011;20779;55.596;37.538;2022-08-01T12:12:47;5.40;;;1.80;;
34535;SDS011;20779;55.596;37.538;2022-08-01T12:15:19;5.20;;;1.58;;
34535;SDS011;20779;55.596;37.538;2022-08-01T12:17:57;6.35;;;1.80;;
34535;SDS011;20779;55.596;37.538;2022-08-01T12:20:36;14.18;;;2.28;;
34535;SDS011;20779;55.596;37.538;2022-08-01T12:25:17;4.45;;;1.88;;
34535;SDS011;20779;55.596;37.538;2022-08-01T12:27:44;3.33;;;2.08;;
34535;SDS011;20779;55.596;37.538;2022-08-01T12:30:15;3.30;;;1.60;;
34535;SDS011;20779;55.596;37.538;2022-08-01T12:32:45;5.32;;;1.60;;
34535;SDS011;20779;55.596;37.538;2022-08-01T12:35:16;5.07;;;1.63;;
34535;SDS011;20779;55.596;37.538;2022-08-01T12:37:49;3.53;;;1.60;;
34535;SDS011;20779;55.596;37.538;2022-08-01T12:40:17;3.63;;;1.90;;
34535;SDS011;20779;55.596;37.538;2022-08-01T12:42:46;3.45;;;1.65;;
34535;SDS011;20779;55.596;37.538;2022-08-01T12:45:34;2.95;;;1.20;;
34535;SDS011;20779;55.596;37.538;2022-08-01T12:48:13;5.72;;;2.08;;
34535;SDS011;20779;55.596;37.538;2022-08-01T12:50:47;7.32;;;1.70;;
34535;SDS011;20779;55.596;37.538;2022-08-01T12:53:15;6.10;;;2.08;;
34535;SDS011;20779;55.596;37.538;2022-08-01T12:55:50;4.25;;;1.50;;
34535;SDS011;20779;55.596;37.538;2022-08-01T12:58:18;4.50;;;1.50;;
34535;SDS011;20779;55.596;37.538;2022-08-01T13:00:46;4.38;;;1.70;;
34535;SDS011;20779;55.596;37.538;2022-08-01T13:03:19;2.95;;;1.70;;
34535;SDS011;20779;55.596;37.538;2022-08-01T13:05:50;5.65;;;1.80;;
34535;SDS011;20779;55.596;37.538;2022-08-01T13:08:23;8.27;;;2.00;;
34535;SDS011;20779;55.596;37.538;2022-08-01T13:11:05;3.60;;;1.70;;
34535;SDS011;20779;55.596;37.538;2022-08-01T13:13:39;6.88;;;1.65;;
34535;SDS011;20779;55.596;37.538;2022-08-01T13:16:12;7.65;;;2.00;;
34535;SDS011;20779;55.596;37.538;2022-08-01T13:18:39;6.93;;;1.70;;
34535;SDS011;20779;55.596;37.538;2022-08-01T13:23:40;2.42;;;1.55;;
34535;SDS011;20779;55.596;37.538;2022-08-01T13:29:33;3.83;;;1.80;;
34535;SDS011;20779;55.596;37.538;2022-08-01T13:34:45;5.28;;;2.33;;
34535;SDS011;20779;55.596;37.538;2022-08-01T13:37:12;4.57;;;1.70;;
34535;SDS011;20779;55.596;37.538;2022-08-01T13:39:39;2.25;;;1.33;;
34535;SDS011;20779;55.596;37.538;2022-08-01T13:42:13;7.95;;;1.92;;
34535;SDS011;20779;55.596;37.538;2022-08-01T13:44:41;5.05;;;1.90;;
34535;SDS011;20779;55.596;37.538;2022-08-01T13:47:11;5.23;;;1.63;;
34535;SDS011;20779;55.596;37.538;2022-08-01T13:49:38;6.30;;;2.08;;
34535;SDS011;20779;55.596;37.538;2022-08-01T13:52:04;6.20;;;2.00;;
34535;SDS011;20779;55.596;37.538;2022-08-01T13:54:31;3.05;;;1.48;;
34535;SDS011;20779;55.596;37.538;2022-08-01T13:56:58;3.55;;;1.52;;
34535;SDS011;20779;55.596;37.538;2022-08-01T13:59:24;5.22;;;1.70;;
34535;SDS011;20779;55.596;37.538;2022-08-01T14:01:51;3.67;;;1.27;;
34535;SDS011;20779;55.596;37.538;2022-08-01T14:04:17;6.20;;;1.90;;
34535;SDS011;20779;55.596;37.538;2022-08-01T14:06:44;6.30;;;1.50;;
34535;SDS011;20779;55.596;37.538;2022-08-01T14:09:10;9.30;;;2.00;;
34535;SDS011;20779;55.596;37.538;2022-08-01T14:11:37;9.93;;;2.92;;
34535;SDS011;20779;55.596;37.538;2022-08-01T14:14:04;11.60;;;1.83;;
34535;SDS011;20779;55.596;37.538;2022-08-01T14:16:30;5.57;;;1.83;;
34535;SDS011;20779;55.596;37.538;2022-08-01T14:18:57;5.65;;;1.92;;
34535;SDS011;20779;55.596;37.538;2022-08-01T14:21:23;9.20;;;2.10;;
34535;SDS011;20779;55.596;37.538;2022-08-01T14:23:50;5.22;;;2.08;;
34535;SDS011;20779;55.596;37.538;2022-08-01T14:26:16;3.55;;;1.58;;
34535;SDS011;20779;55.596;37.538;2022-08-01T14:28:43;4.10;;;1.70;;
34535;SDS011;20779;55.596;37.538;2022-08-01T14:31:09;5.80;;;1.80;;
34535;SDS011;20779;55.596;37.538;2022-08-01T14:33:36;4.40;;;1.70;;
34535;SDS011;20779;55.596;37.538;2022-08-01T14:36:03;5.50;;;2.22;;
34535;SDS011;20779;55.596;37.538;2022-08-01T14:38:30;3.92;;;1.88;;
34535;SDS011;20779;55.596;37.538;2022-08-01T14:40:56;8.00;;;2.00;;
34535;SDS011;20779;55.596;37.538;2022-08-01T14:43:24;4.43;;;1.70;;
34535;SDS011;20779;55.596;37.538;2022-08-01T14:45:51;9.32;;;1.85;;
34535;SDS011;20779;55.596;37.538;2022-08-01T14:48:19;4.93;;;2.00;;
34535;SDS011;20779;55.596;37.538;2022-08-01T14:50:46;7.75;;;2.20;;
34535;SDS011;20779;55.596;37.538;2022-08-01T14:53:12;18.15;;;3.40;;
34535;SDS011;20779;55.596;37.538;2022-08-01T14:55:38;13.23;;;3.30;;
34535;SDS011;20779;55.596;37.538;2022-08-01T14:58:05;32.53;;;4.43;;
34535;SDS011;20779;55.596;37.538;2022-08-01T15:00:31;24.65;;;4.65;;
34535;SDS011;20779;55.596;37.538;2022-08-01T15:02:58;27.77;;;4.72;;
34535;SDS011;20779;55.596;37.538;2022-08-01T15:05:24;11.13;;;2.90;;
34535;SDS011;20779;55.596;37.538;2022-08-01T15:07:50;13.27;;;2.72;;
34535;SDS011;20779;55.596;37.538;2022-08-01T15:10:17;8.00;;;2.30;;
34535;SDS011;20779;55.596;37.538;2022-08-01T15:12:43;4.28;;;2.22;;
34535;SDS011;20779;55.596;37.538;2022-08-01T15:15:10;10.30;;;2.88;;
34535;SDS011;20779;55.596;37.538;2022-08-01T15:17:36;9.00;;;3.00;;
34535;SDS011;20779;55.596;37.538;2022-08-01T15:20:04;10.25;;;3.00;;
34535;SDS011;20779;55.596;37.538;2022-08-01T15:22:32;10.25;;;3.40;;
34535;SDS011;20779;55.596;37.538;2022-08-01T15:25:00;7.72;;;2.55;;
34535;SDS011;20779;55.596;37.538;2022-08-01T15:27:28;7.03;;;2.70;;
34535;SDS011;20779;55.596;37.538;2022-08-01T15:29:55;4.88;;;2.05;;
34535;SDS011;20779;55.596;37.538;2022-08-01T15:32:22;4.10;;;1.85;;
34535;SDS011;20779;55.596;37.538;2022-08-01T15:34:49;9.30;;;2.40;;
34535;SDS011;20779;55.596;37.538;2022-08-01T15:37:15;10.30;;;2.53;;
34535;SDS011;20779;55.596;37.538;2022-08-01T15:39:42;6.35;;;2.20;;
34535;SDS011;20779;55.596;37.538;2022-08-01T15:42:10;11.85;;;3.28;;